createdAt,value
2022-09-10T00:00:00.811Z,19
2022-09-10T00:01:00.771Z,18
2022-09-10T00:02:00.830Z,16
2022-09-10T00:04:00.771Z,15
2022-09-10T00:06:00.769Z,14
2022-09-10T00:07:00.806Z,15
2022-09-10T00:12:01.090Z,16
2022-09-10T00:13:00.774Z,15
2022-09-10T00:15:00.773Z,16
2022-09-10T00:19:00.826Z,17
2022-09-10T00:20:00.776Z,18
2022-09-10T00:24:00.870Z,19
2022-09-10T00:25:02.348Z,17
2022-09-10T00:26:00.777Z,15
2022-09-10T00:27:00.779Z,16
2022-09-10T00:28:00.778Z,15
2022-09-10T00:30:00.809Z,16
2022-09-10T00:32:00.908Z,15
2022-09-10T00:33:00.781Z,17
2022-09-10T00:34:00.806Z,15
2022-09-10T00:35:00.803Z,16
2022-09-10T00:36:00.781Z,18
2022-09-10T00:37:00.780Z,20
2022-09-10T00:38:00.781Z,18
2022-09-10T00:41:01.872Z,16
2022-09-10T00:42:00.783Z,14
2022-09-10T00:43:00.783Z,16
2022-09-10T00:44:00.819Z,15
2022-09-10T00:45:00.782Z,16
2022-09-10T00:46:00.824Z,18
2022-09-10T00:47:00.794Z,20
2022-09-10T00:48:00.783Z,21
2022-09-10T00:49:00.813Z,22
2022-09-10T00:50:00.783Z,20
2022-09-10T00:51:00.809Z,19
2022-09-10T00:53:00.786Z,17
2022-09-10T00:54:00.823Z,16
2022-09-10T00:56:00.786Z,17
2022-09-10T00:58:00.788Z,18
2022-09-10T00:59:00.816Z,20
2022-09-10T01:00:00.787Z,20
2022-09-10T01:01:00.794Z,19
2022-09-10T01:02:00.801Z,18
2022-09-10T01:03:00.790Z,16
2022-09-10T01:05:05.823Z,17
2022-09-10T01:07:00.813Z,19
2022-09-10T01:08:00.789Z,20
2022-09-10T01:10:00.833Z,19
2022-09-10T01:11:00.790Z,18
2022-09-10T01:12:00.788Z,17
2022-09-10T01:14:00.789Z,16
2022-09-10T01:15:01.185Z,18
2022-09-10T01:16:00.814Z,19
2022-09-10T01:17:00.789Z,20
2022-09-10T01:18:00.790Z,19
2022-09-10T01:19:00.790Z,20
2022-09-10T01:20:00.792Z,18
2022-09-10T01:23:00.814Z,19
2022-09-10T01:24:00.790Z,20
2022-09-10T01:25:00.798Z,19
2022-09-10T01:26:00.827Z,18
2022-09-10T01:27:00.791Z,16
2022-09-10T01:28:00.791Z,17
2022-09-10T01:29:00.791Z,16
2022-09-10T01:30:00.791Z,16
2022-09-10T01:31:00.840Z,15
2022-09-10T01:32:00.790Z,17
2022-09-10T01:33:00.789Z,18
2022-09-10T01:38:00.789Z,16
2022-09-10T01:39:00.814Z,15
2022-09-10T01:40:00.825Z,16
2022-09-10T01:41:00.792Z,17
2022-09-10T01:43:00.792Z,19
2022-09-10T01:44:00.791Z,20
2022-09-10T01:45:00.793Z,20
2022-09-10T01:46:00.813Z,21
2022-09-10T01:48:00.836Z,19
2022-09-10T01:50:00.791Z,18
2022-09-10T01:51:00.793Z,16
2022-09-10T01:52:00.793Z,14
2022-09-10T01:54:00.828Z,13
2022-09-10T01:55:00.817Z,14
2022-09-10T01:56:00.792Z,15
2022-09-10T01:57:00.792Z,14
2022-09-10T01:58:00.805Z,15
2022-09-10T02:00:00.823Z,14
2022-09-10T02:01:00.817Z,15
2022-09-10T02:02:00.808Z,16
2022-09-10T02:03:00.793Z,17
2022-09-10T02:04:00.793Z,16
2022-09-10T02:06:00.795Z,18
2022-09-10T02:08:00.794Z,17
2022-09-10T02:09:00.794Z,19
2022-09-10T02:10:00.795Z,20
2022-09-10T02:11:00.821Z,18
2022-09-10T02:12:00.794Z,17
2022-09-10T02:13:00.793Z,18
2022-09-10T02:15:00.798Z,19
2022-09-10T02:16:00.851Z,18
2022-09-10T02:17:00.799Z,17
2022-09-10T02:18:00.794Z,16
2022-09-10T02:19:00.795Z,15
2022-09-10T02:20:00.797Z,14
2022-09-10T02:23:00.891Z,15
2022-09-10T02:25:00.801Z,16
2022-09-10T02:27:00.855Z,17
2022-09-10T02:28:00.795Z,18
2022-09-10T02:29:00.795Z,17
2022-09-10T02:30:00.796Z,16
2022-09-10T02:32:00.950Z,17
2022-09-10T02:34:00.795Z,18
2022-09-10T02:35:00.794Z,20
2022-09-10T02:36:00.798Z,19
2022-09-10T02:40:00.882Z,17
2022-09-10T02:41:00.796Z,18
2022-09-10T02:42:00.818Z,17
2022-09-10T02:43:00.842Z,16
2022-09-10T02:45:00.839Z,16
2022-09-10T02:46:00.812Z,15
2022-09-10T02:47:00.798Z,16
2022-09-10T02:49:00.796Z,15
2022-09-10T02:51:00.862Z,16
2022-09-10T02:52:00.798Z,18
2022-09-10T02:54:00.797Z,17
2022-09-10T02:58:00.826Z,18
2022-09-10T03:00:00.824Z,18
2022-09-10T03:03:03.018Z,16
2022-09-10T03:04:00.812Z,18
2022-09-10T03:05:00.801Z,19
2022-09-10T03:07:00.803Z,18
2022-09-10T03:08:00.831Z,19
2022-09-10T03:09:00.805Z,18
2022-09-10T03:10:00.802Z,17
2022-09-10T03:12:00.869Z,16
2022-09-10T03:14:00.831Z,17
2022-09-10T03:15:00.805Z,16
2022-09-10T03:17:00.834Z,18
2022-09-10T03:18:00.834Z,17
2022-09-10T03:20:00.807Z,15
2022-09-10T03:21:00.806Z,16
2022-09-10T03:22:00.806Z,13
2022-09-10T03:24:00.806Z,14
2022-09-10T03:25:00.808Z,16
2022-09-10T03:27:00.806Z,19
2022-09-10T03:28:00.834Z,20
2022-09-10T03:29:00.818Z,19
2022-09-10T03:30:00.807Z,18
2022-09-10T03:31:00.806Z,19
2022-09-10T03:32:00.806Z,17
2022-09-10T03:33:00.866Z,18
2022-09-10T03:34:00.807Z,17
2022-09-10T03:35:00.807Z,16
2022-09-10T03:36:00.808Z,17
2022-09-10T03:37:00.807Z,16
2022-09-10T03:38:00.835Z,15
2022-09-10T03:39:00.810Z,18
2022-09-10T03:40:00.920Z,20
2022-09-10T03:41:00.808Z,18
2022-09-10T03:42:00.807Z,19
2022-09-10T03:44:00.834Z,17
2022-09-10T03:45:00.809Z,16
2022-09-10T03:46:00.825Z,18
2022-09-10T03:49:00.836Z,17
2022-09-10T03:50:00.810Z,16
2022-09-10T03:51:00.813Z,14
2022-09-10T03:52:00.812Z,13
2022-09-10T03:54:00.839Z,14
2022-09-10T03:55:00.812Z,15
2022-09-10T03:56:00.816Z,16
2022-09-10T03:57:00.814Z,17
2022-09-10T03:58:00.840Z,16
2022-09-10T03:59:00.817Z,18
2022-09-10T04:00:00.814Z,17
2022-09-10T04:02:00.882Z,18
2022-09-10T04:06:00.841Z,19
2022-09-10T04:07:00.816Z,17
2022-09-10T04:08:00.859Z,18
2022-09-10T04:09:00.817Z,16
2022-09-10T04:10:00.821Z,17
2022-09-10T04:11:00.817Z,16
2022-09-10T04:14:00.818Z,18
2022-09-10T04:15:00.818Z,18
2022-09-10T04:16:00.820Z,19
2022-09-10T04:19:00.820Z,18
2022-09-10T04:20:00.824Z,20
2022-09-10T04:21:00.823Z,18
2022-09-10T04:22:00.846Z,19
2022-09-10T04:25:00.821Z,17
2022-09-10T04:26:00.821Z,19
2022-09-10T04:27:00.822Z,18
2022-09-10T04:28:00.821Z,16
2022-09-10T04:29:00.822Z,17
2022-09-10T04:30:00.823Z,16
2022-09-10T04:34:00.888Z,17
2022-09-10T04:35:00.823Z,18
2022-09-10T04:36:00.824Z,17
2022-09-10T04:37:01.853Z,20
2022-09-10T04:39:00.850Z,19
2022-09-10T04:41:00.826Z,18
2022-09-10T04:45:00.828Z,15
2022-09-10T04:46:03.928Z,17
2022-09-10T04:50:00.827Z,18
2022-09-10T04:54:05.952Z,18
2022-09-10T05:01:00.934Z,20
2022-09-10T05:05:06.886Z,19
2022-09-10T05:10:01.886Z,14
2022-09-10T05:18:00.836Z,18
2022-09-10T05:19:06.115Z,17
2022-09-10T05:20:33.077Z,15
2022-09-10T05:21:00.818Z,16
2022-09-10T05:22:03.981Z,17
2022-09-10T05:29:16.634Z,15
2022-09-10T05:30:00.821Z,17
2022-09-10T05:32:01.928Z,17
2022-09-10T05:35:00.841Z,17
2022-09-10T05:36:03.918Z,16
2022-09-10T05:37:00.839Z,17
2022-09-10T05:38:00.842Z,14
2022-09-10T05:39:00.842Z,15
2022-09-10T05:40:00.917Z,14
2022-09-10T05:43:00.906Z,15
2022-09-10T05:44:00.842Z,14
2022-09-10T05:45:00.893Z,16
2022-09-10T05:46:00.921Z,15
2022-09-10T05:47:00.842Z,16
2022-09-10T05:48:00.843Z,18
2022-09-10T05:49:00.907Z,19
2022-09-10T05:51:00.910Z,22
2022-09-10T05:52:00.855Z,19
2022-09-10T05:54:00.842Z,20
2022-09-10T05:55:00.869Z,21
2022-09-10T05:56:01.871Z,20
2022-09-10T05:57:00.842Z,21
2022-09-10T05:58:00.849Z,20
2022-09-10T05:59:00.842Z,19
2022-09-10T06:00:00.870Z,16
2022-09-10T06:01:00.866Z,15
2022-09-10T06:02:00.900Z,16
2022-09-10T06:03:00.937Z,15
2022-09-10T06:04:00.931Z,14
2022-09-10T06:05:00.944Z,15
2022-09-10T06:07:00.925Z,16
2022-09-10T06:11:00.921Z,17
2022-09-10T06:12:00.847Z,16
2022-09-10T06:13:00.849Z,18
2022-09-10T06:15:00.894Z,19
2022-09-10T06:16:00.850Z,20
2022-09-10T06:17:00.871Z,21
2022-09-10T06:18:00.849Z,23
2022-09-10T06:19:00.850Z,22
2022-09-10T06:20:01.229Z,20
2022-09-10T06:21:00.850Z,19
2022-09-10T06:22:00.850Z,17
2022-09-10T06:23:00.851Z,14
2022-09-10T06:24:00.850Z,13
2022-09-10T06:25:00.850Z,15
2022-09-10T06:27:00.852Z,14
2022-09-10T06:28:00.852Z,17
2022-09-10T06:29:00.858Z,18
2022-09-10T06:30:00.855Z,17
2022-09-10T06:31:00.915Z,16
2022-09-10T06:33:00.880Z,13
2022-09-10T06:35:00.855Z,15
2022-09-10T06:36:00.856Z,16
2022-09-10T06:37:00.856Z,17
2022-09-10T06:38:00.855Z,18
2022-09-10T06:39:00.854Z,17
2022-09-10T06:40:00.862Z,16
2022-09-10T06:41:00.855Z,15
2022-09-10T06:44:00.857Z,16
2022-09-10T06:45:00.859Z,16
2022-09-10T07:06:00.847Z,14
2022-09-10T07:07:00.839Z,15
2022-09-10T07:10:00.822Z,14
2022-09-10T07:11:00.823Z,15
2022-09-10T07:12:00.821Z,14
2022-09-10T07:14:00.824Z,15
2022-09-10T07:15:00.823Z,14
2022-09-10T07:16:00.908Z,15
2022-09-10T07:17:00.823Z,18
2022-09-10T07:19:00.825Z,17
2022-09-10T07:20:00.824Z,19
2022-09-10T07:22:00.849Z,16
2022-09-10T07:24:00.827Z,17
2022-09-10T07:25:00.825Z,16
2022-09-10T07:26:00.824Z,17
2022-09-10T07:27:00.888Z,19
2022-09-10T07:28:00.825Z,20
2022-09-10T07:29:00.827Z,19
2022-09-10T07:30:00.828Z,20
2022-09-10T07:31:00.864Z,19
2022-09-10T07:32:00.827Z,20
2022-09-10T07:33:00.827Z,18
2022-09-10T07:35:00.891Z,16
2022-09-10T07:36:00.828Z,17
2022-09-10T07:37:00.827Z,15
2022-09-10T07:38:00.853Z,14
2022-09-10T07:39:00.828Z,15
2022-09-10T07:40:00.855Z,16
2022-09-10T07:41:00.828Z,15
2022-09-10T07:42:00.829Z,16
2022-09-10T07:43:00.829Z,19
2022-09-10T07:44:00.828Z,21
2022-09-10T07:45:00.829Z,20
2022-09-10T07:46:04.056Z,19
2022-09-10T07:47:00.828Z,20
2022-09-10T07:48:00.830Z,19
2022-09-10T07:49:00.845Z,18
2022-09-10T07:50:00.828Z,19
2022-09-10T07:51:00.828Z,21
2022-09-10T07:53:00.832Z,19
2022-09-10T07:54:00.853Z,16
2022-09-10T07:55:00.829Z,17
2022-09-10T07:56:00.830Z,16
2022-09-10T07:57:01.855Z,15
2022-09-10T07:59:00.830Z,16
2022-09-10T08:00:00.867Z,16
2022-09-10T08:05:00.939Z,15
2022-09-10T08:06:00.830Z,16
2022-09-10T08:08:00.832Z,17
2022-09-10T08:09:00.833Z,18
2022-09-10T08:12:00.859Z,19
2022-09-10T08:13:00.833Z,20
2022-09-10T08:14:00.834Z,19
2022-09-10T08:15:00.877Z,20
2022-09-10T08:16:00.834Z,19
2022-09-10T08:17:00.837Z,17
2022-09-10T08:18:00.835Z,16
2022-09-10T08:20:00.867Z,15
2022-09-10T08:21:00.835Z,14
2022-09-10T08:23:00.834Z,15
2022-09-10T08:25:00.837Z,17
2022-09-10T08:26:00.833Z,18
2022-09-10T08:27:05.856Z,20
2022-09-10T08:28:00.833Z,21
2022-09-10T08:30:00.835Z,20
2022-09-10T08:31:00.883Z,19
2022-09-10T08:33:00.837Z,18
2022-09-10T08:34:00.837Z,17
2022-09-10T08:35:00.838Z,15
2022-09-10T08:38:00.839Z,13
2022-09-10T08:39:03.119Z,14
2022-09-10T08:40:00.871Z,15
2022-09-10T08:41:00.838Z,16
2022-09-10T08:42:00.839Z,15
2022-09-10T08:43:00.868Z,17
2022-09-10T08:44:00.840Z,19
2022-09-10T08:45:00.839Z,19
2022-09-10T08:48:00.842Z,17
2022-09-10T08:49:01.865Z,16
2022-09-10T08:50:00.841Z,17
2022-09-10T08:52:00.906Z,18
2022-09-10T08:54:00.842Z,16
2022-09-10T08:56:00.844Z,15
2022-09-10T08:57:00.845Z,16
2022-09-10T08:58:00.842Z,18
2022-09-10T09:00:00.868Z,17
2022-09-10T09:01:00.852Z,16
2022-09-10T09:03:00.898Z,15
2022-09-10T09:04:04.962Z,16
2022-09-10T09:05:00.847Z,15
2022-09-10T09:06:00.846Z,16
2022-09-10T09:09:00.876Z,18
2022-09-10T09:10:00.846Z,19
2022-09-10T09:11:00.846Z,18
2022-09-10T09:14:00.877Z,17
2022-09-10T09:15:00.849Z,17
2022-09-10T09:16:00.943Z,20
2022-09-10T09:19:00.878Z,19
2022-09-10T09:20:00.849Z,20
2022-09-10T09:21:00.849Z,18
2022-09-10T09:22:00.849Z,17
2022-09-10T09:23:00.850Z,16
2022-09-10T09:24:13.013Z,17
2022-09-10T09:25:00.851Z,15
2022-09-10T09:27:00.853Z,16
2022-09-10T09:28:00.852Z,18
2022-09-10T09:29:00.853Z,16
2022-09-10T09:30:00.879Z,16
2022-09-10T09:31:00.880Z,17
2022-09-10T09:32:00.877Z,16
2022-09-10T09:33:00.851Z,15
2022-09-10T09:34:00.854Z,14
2022-09-10T09:35:00.896Z,13
2022-09-10T09:36:00.852Z,14
2022-09-10T09:37:00.854Z,15
2022-09-10T09:38:00.854Z,16
2022-09-10T09:39:00.855Z,18
2022-09-10T09:40:00.933Z,20
2022-09-10T09:41:00.854Z,19
2022-09-10T09:43:00.858Z,18
2022-09-10T09:44:00.857Z,17
2022-09-10T09:45:00.897Z,17
2022-09-10T09:46:00.873Z,19
2022-09-10T09:47:00.854Z,18
2022-09-10T09:49:00.880Z,20
2022-09-10T09:50:00.893Z,19
2022-09-10T09:51:00.857Z,17
2022-09-10T09:52:00.858Z,19
2022-09-10T09:54:34.332Z,18
2022-09-10T09:55:14.116Z,17
2022-09-10T09:56:00.856Z,18
2022-09-10T09:57:00.856Z,16
2022-09-10T09:59:00.858Z,15
2022-09-10T10:00:00.894Z,16
2022-09-10T10:01:00.857Z,15
2022-09-10T10:02:00.896Z,16
2022-09-10T10:03:00.857Z,15
2022-09-10T10:05:00.919Z,13
2022-09-10T10:07:00.859Z,14
2022-09-10T10:08:00.857Z,15
2022-09-10T10:11:00.921Z,16
2022-09-10T10:12:00.857Z,15
2022-09-10T10:13:00.857Z,16
2022-09-10T10:14:00.856Z,15
2022-09-10T10:15:00.864Z,16
2022-09-10T10:16:00.893Z,15
2022-09-10T10:17:01.231Z,17
2022-09-10T10:18:00.859Z,16
2022-09-10T10:19:00.858Z,17
2022-09-10T10:21:01.012Z,18
2022-09-10T10:25:00.860Z,19
2022-09-10T10:26:00.862Z,18
2022-09-10T10:28:00.862Z,17
2022-09-10T10:29:00.863Z,19
2022-09-10T10:30:00.868Z,19
2022-09-10T10:32:05.069Z,18
2022-09-10T10:33:00.860Z,19
2022-09-10T10:34:00.866Z,17
2022-09-10T10:37:00.888Z,16
2022-09-10T10:38:00.863Z,18
2022-09-10T10:39:00.865Z,17
2022-09-10T10:40:01.093Z,18
2022-09-10T10:41:00.873Z,17
2022-09-10T10:42:00.866Z,18
2022-09-10T10:44:00.865Z,19
2022-09-10T10:45:00.865Z,19
2022-09-10T10:46:00.897Z,20
2022-09-10T10:49:03.466Z,19
2022-09-10T10:50:00.866Z,18
2022-09-10T10:51:00.868Z,19
2022-09-10T10:53:00.889Z,17
2022-09-10T10:54:00.867Z,16
2022-09-10T10:55:00.867Z,18
2022-09-10T10:56:00.906Z,16
2022-09-10T10:58:00.868Z,18
2022-09-10T10:59:00.868Z,19
2022-09-10T11:00:00.875Z,17
2022-09-10T11:01:00.917Z,18
2022-09-10T11:02:00.959Z,17
2022-09-10T11:03:00.868Z,15
2022-09-10T11:05:00.873Z,14
2022-09-10T11:06:00.916Z,13
2022-09-10T11:07:00.869Z,15
2022-09-10T11:08:00.869Z,16
2022-09-10T11:09:00.902Z,17
2022-09-10T11:10:00.867Z,19
2022-09-10T11:11:00.910Z,18
2022-09-10T11:12:00.872Z,19
2022-09-10T11:13:00.878Z,20
2022-09-10T11:15:00.871Z,20
2022-09-10T11:16:00.943Z,19
2022-09-10T11:17:00.871Z,18
2022-09-10T11:18:00.870Z,16
2022-09-10T11:19:00.873Z,14
2022-09-10T11:23:01.182Z,15
2022-09-10T11:24:00.874Z,16
2022-09-10T11:26:00.900Z,17
2022-09-10T11:29:01.303Z,18
2022-09-10T11:30:00.953Z,18
2022-09-10T11:31:00.968Z,17
2022-09-10T11:33:00.876Z,16
2022-09-10T11:34:00.939Z,14
2022-09-10T11:35:00.909Z,15
2022-09-10T11:37:00.875Z,17
2022-09-10T11:38:00.877Z,18
2022-09-10T11:39:00.875Z,20
2022-09-10T11:40:00.879Z,19
2022-09-10T11:41:00.875Z,18
2022-09-10T11:44:00.964Z,17
2022-09-10T11:45:00.970Z,18
2022-09-10T11:46:00.996Z,19
2022-09-10T11:48:00.945Z,20
2022-09-10T11:49:00.886Z,19
2022-09-10T11:50:00.910Z,20
2022-09-10T11:52:01.010Z,19
2022-09-10T11:53:00.943Z,18
2022-09-10T11:54:00.881Z,19
2022-09-10T11:55:00.911Z,17
2022-09-10T11:56:00.943Z,18
2022-09-10T11:57:00.879Z,17
2022-09-10T12:00:00.951Z,19
2022-09-10T12:01:00.946Z,18
2022-09-10T12:02:01.021Z,19
2022-09-10T12:04:00.937Z,18
2022-09-10T12:05:00.922Z,17
2022-09-10T12:06:01.905Z,16
2022-09-10T12:07:00.881Z,15
2022-09-10T12:09:00.881Z,17
2022-09-10T12:10:00.947Z,18
2022-09-10T12:12:00.973Z,19
2022-09-10T12:13:00.883Z,18
2022-09-10T12:15:00.916Z,17
2022-09-10T12:18:00.906Z,19
2022-09-10T12:19:00.884Z,17
2022-09-10T12:21:00.950Z,18
2022-09-10T12:23:00.885Z,17
2022-09-10T12:24:00.885Z,16
2022-09-10T12:26:00.888Z,15
2022-09-10T12:27:00.885Z,14
2022-09-10T12:28:00.950Z,15
2022-09-10T12:30:00.885Z,15
2022-09-10T12:31:01.004Z,13
2022-09-10T12:32:00.887Z,15
2022-09-10T12:35:00.910Z,16
2022-09-10T12:36:00.888Z,18
2022-09-10T12:37:00.886Z,19
2022-09-10T12:38:00.886Z,17
2022-09-10T12:41:00.950Z,16
2022-09-10T12:43:00.887Z,18
2022-09-10T12:45:00.917Z,17
2022-09-10T12:46:00.927Z,18
2022-09-10T12:47:00.888Z,15
2022-09-10T12:48:00.887Z,13
2022-09-10T12:50:00.888Z,14
2022-09-10T12:52:01.043Z,15
2022-09-10T12:53:00.893Z,16
2022-09-10T12:54:00.890Z,18
2022-09-10T12:55:00.890Z,17
2022-09-10T12:56:00.888Z,19
2022-09-10T12:57:00.889Z,18
2022-09-10T12:59:00.891Z,19
2022-09-10T13:00:00.983Z,18
2022-09-10T13:01:00.892Z,16
2022-09-10T13:02:00.948Z,17
2022-09-10T13:05:00.920Z,18
2022-09-10T13:07:00.893Z,17
2022-09-10T13:08:00.916Z,16
2022-09-10T13:10:00.978Z,15
2022-09-10T13:11:00.894Z,16
2022-09-10T13:12:00.893Z,17
2022-09-10T13:13:00.894Z,18
2022-09-10T13:15:00.926Z,19
2022-09-10T13:16:00.923Z,18
2022-09-10T13:18:00.895Z,16
2022-09-10T13:20:00.957Z,17
2022-09-10T13:21:00.893Z,18
2022-09-10T13:22:00.896Z,19
2022-09-10T13:24:00.925Z,18
2022-09-10T13:25:00.928Z,17
2022-09-10T13:26:00.909Z,18
2022-09-10T13:27:00.897Z,16
2022-09-10T13:28:00.897Z,17
2022-09-10T13:29:00.897Z,18
2022-09-10T13:30:00.967Z,17
2022-09-10T13:31:00.933Z,16
2022-09-10T13:34:00.900Z,15
2022-09-10T13:35:01.267Z,16
2022-09-10T13:36:00.901Z,14
2022-09-10T13:37:00.899Z,15
2022-09-10T13:39:02.888Z,16
2022-09-10T13:40:00.988Z,15
2022-09-10T13:41:00.899Z,17
2022-09-10T13:43:00.899Z,16
2022-09-10T13:44:01.368Z,14
2022-09-10T13:45:00.904Z,14
2022-09-10T13:47:00.901Z,13
2022-09-10T13:50:00.983Z,14
2022-09-10T13:52:01.001Z,15
2022-09-10T13:56:00.976Z,18
2022-09-10T13:59:00.908Z,19
2022-09-10T14:00:00.905Z,20
2022-09-10T14:01:00.957Z,18
2022-09-10T14:02:00.903Z,20
2022-09-10T14:03:00.903Z,22
2022-09-10T14:04:00.904Z,20
2022-09-10T14:05:00.904Z,19
2022-09-10T14:06:00.939Z,17
2022-09-10T14:07:00.907Z,16
2022-09-10T14:08:00.906Z,15
2022-09-10T14:09:00.904Z,16
2022-09-10T14:10:00.903Z,15
2022-09-10T14:11:00.934Z,16
2022-09-10T14:12:00.933Z,17
2022-09-10T14:13:00.907Z,15
2022-09-10T14:14:00.912Z,16
2022-09-10T14:15:00.907Z,18
2022-09-10T14:16:01.102Z,17
2022-09-10T14:18:00.910Z,19
2022-09-10T14:19:00.909Z,18
2022-09-10T14:20:00.908Z,17
2022-09-10T14:22:00.942Z,15
2022-09-10T14:23:00.911Z,14
2022-09-10T14:24:00.910Z,15
2022-09-10T14:26:00.910Z,17
2022-09-10T14:27:00.948Z,18
2022-09-10T14:28:00.938Z,19
2022-09-10T14:29:00.912Z,17
2022-09-10T14:30:00.911Z,16
2022-09-10T14:31:00.946Z,15
2022-09-10T14:33:00.940Z,16
2022-09-10T14:35:02.698Z,15
2022-09-10T14:36:00.912Z,16
2022-09-10T14:40:01.002Z,17
2022-09-10T14:41:03.390Z,15
2022-09-10T14:43:00.913Z,14
2022-09-10T14:45:00.965Z,15
2022-09-10T14:46:00.954Z,17
2022-09-10T14:49:00.943Z,19
2022-09-10T14:50:04.299Z,17
2022-09-10T14:52:00.982Z,19
2022-09-10T14:54:00.968Z,18
2022-09-10T14:55:00.916Z,20
2022-09-10T14:57:00.919Z,18
2022-09-10T15:00:01.018Z,17
2022-09-10T15:01:00.943Z,16
2022-09-10T15:02:00.966Z,17
2022-09-10T15:04:00.920Z,18
2022-09-10T15:06:00.920Z,17
2022-09-10T15:09:00.920Z,16
2022-09-10T15:10:00.947Z,17
2022-09-10T15:11:00.920Z,19
2022-09-10T15:12:00.985Z,17
2022-09-10T15:13:00.926Z,16
2022-09-10T15:15:00.948Z,16
2022-09-10T15:17:00.946Z,18
2022-09-10T15:18:00.923Z,19
2022-09-10T15:19:00.923Z,18
2022-09-10T15:21:01.051Z,16
2022-09-10T15:23:00.987Z,15
2022-09-10T15:24:00.988Z,16
2022-09-10T15:25:15.356Z,17
2022-09-10T15:26:00.925Z,18
2022-09-10T15:27:00.924Z,17
2022-09-10T15:30:00.962Z,15
2022-09-10T15:32:00.988Z,16
2022-09-10T15:34:00.954Z,15
2022-09-10T15:35:00.969Z,16
2022-09-10T15:38:00.927Z,15
2022-09-10T15:41:00.990Z,14
2022-09-10T15:45:00.924Z,15
2022-09-10T15:46:00.964Z,16
2022-09-10T15:47:00.930Z,15
2022-09-10T15:48:00.926Z,16
2022-09-10T15:49:00.925Z,15
2022-09-10T15:50:00.948Z,16
2022-09-10T15:53:01.054Z,15
2022-09-10T15:54:04.876Z,18
2022-09-10T15:55:00.927Z,16
2022-09-10T15:56:00.929Z,15
2022-09-10T15:57:00.931Z,14
2022-09-10T15:58:00.929Z,16
2022-09-10T15:59:00.948Z,15
2022-09-10T16:00:00.929Z,16
2022-09-10T16:01:00.928Z,17
2022-09-10T16:02:00.929Z,18
2022-09-10T16:03:00.981Z,20
2022-09-10T16:04:00.931Z,19
2022-09-10T16:05:00.928Z,18
2022-09-10T16:06:00.958Z,17
2022-09-10T16:07:00.928Z,18
2022-09-10T16:08:00.929Z,17
2022-09-10T16:09:00.929Z,16
2022-09-10T16:12:01.066Z,17
2022-09-10T16:13:00.929Z,16
2022-09-10T16:14:04.198Z,18
2022-09-10T16:15:00.930Z,19
2022-09-10T16:17:00.944Z,18
2022-09-10T16:18:00.930Z,19
2022-09-10T16:20:00.931Z,18
2022-09-10T16:22:01.022Z,19
2022-09-10T16:23:00.933Z,16
2022-09-10T16:24:00.946Z,15
2022-09-10T16:25:00.961Z,18
2022-09-10T16:26:00.933Z,17
2022-09-10T16:27:00.933Z,16
2022-09-10T16:28:00.937Z,19
2022-09-10T16:30:00.968Z,17
2022-09-10T16:31:00.954Z,19
2022-09-10T16:32:00.936Z,17
2022-09-10T16:33:00.940Z,16
2022-09-10T16:34:00.934Z,17
2022-09-10T16:35:00.971Z,16
2022-09-10T16:36:00.936Z,17
2022-09-10T16:38:00.961Z,18
2022-09-10T16:39:00.936Z,19
2022-09-10T16:40:00.997Z,20
2022-09-10T16:41:00.935Z,18
2022-09-10T16:44:00.938Z,15
2022-09-10T16:45:01.371Z,15
2022-09-10T16:46:00.942Z,17
2022-09-10T16:47:00.938Z,18
2022-09-10T16:49:00.937Z,19
2022-09-10T16:51:01.003Z,16
2022-09-10T16:57:00.965Z,15
2022-09-10T16:58:00.940Z,16
2022-09-10T16:59:00.943Z,15
2022-09-10T17:00:00.942Z,14
2022-09-10T17:01:00.951Z,15
2022-09-10T17:02:01.039Z,13
2022-09-10T17:03:01.012Z,12
2022-09-10T17:06:00.944Z,14
2022-09-10T17:07:00.945Z,15
2022-09-10T17:08:00.944Z,17
2022-09-10T17:09:00.944Z,18
2022-09-10T17:10:01.273Z,19
2022-09-10T17:11:00.963Z,18
2022-09-10T17:12:00.943Z,19
2022-09-10T17:13:00.970Z,17
2022-09-10T17:14:00.948Z,15
2022-09-10T17:15:00.946Z,14
2022-09-10T17:18:00.947Z,15
2022-09-10T17:19:00.946Z,16
2022-09-10T17:20:00.947Z,17
2022-09-10T17:22:01.010Z,16
2022-09-10T17:24:00.950Z,17
2022-09-10T17:25:00.949Z,16
2022-09-10T17:27:00.949Z,17
2022-09-10T17:30:00.973Z,18
2022-09-10T17:31:01.015Z,17
2022-09-10T17:32:00.948Z,19
2022-09-10T17:33:00.948Z,18
2022-09-10T17:34:00.956Z,17
2022-09-10T17:35:00.948Z,18
2022-09-10T17:37:00.950Z,17
2022-09-10T17:38:00.949Z,19
2022-09-10T17:41:01.013Z,21
2022-09-10T17:43:01.017Z,19
2022-09-10T17:45:00.951Z,20
2022-09-10T17:46:01.296Z,19
2022-09-10T17:49:00.952Z,18
2022-09-10T17:50:00.952Z,17
2022-09-10T17:51:00.950Z,14
2022-09-10T17:52:00.950Z,13
2022-09-10T17:53:00.952Z,12
2022-09-10T17:54:00.950Z,14
2022-09-10T17:55:00.952Z,13
2022-09-10T17:56:00.951Z,14
2022-09-10T17:57:00.956Z,15
2022-09-10T17:58:00.951Z,17
2022-09-10T17:59:00.951Z,18
2022-09-10T18:00:00.951Z,19
2022-09-10T18:01:00.952Z,20
2022-09-10T18:02:01.012Z,19
2022-09-10T18:06:00.954Z,18
2022-09-10T18:08:00.954Z,17
2022-09-10T18:09:00.986Z,16
2022-09-10T18:11:01.018Z,19
2022-09-10T18:15:00.956Z,19
2022-09-10T18:16:01.020Z,17
2022-09-10T18:17:00.957Z,16
2022-09-10T18:18:00.989Z,15
2022-09-10T18:19:00.962Z,16
2022-09-10T18:22:01.092Z,18
2022-09-10T18:23:00.957Z,19
2022-09-10T18:24:00.957Z,17
2022-09-10T18:28:00.958Z,16
2022-09-10T18:29:00.959Z,15
2022-09-10T18:30:00.958Z,16
2022-09-10T18:31:00.977Z,15
2022-09-10T18:36:00.985Z,16
2022-09-10T18:37:05.973Z,15
2022-09-10T18:38:00.964Z,16
2022-09-10T18:43:01.031Z,15
2022-09-10T18:44:00.963Z,17
2022-09-10T18:45:00.964Z,18
2022-09-10T18:46:01.002Z,16
2022-09-10T18:47:01.171Z,18
2022-09-10T18:49:00.964Z,15
2022-09-10T18:50:00.966Z,16
2022-09-10T18:51:00.966Z,18
2022-09-10T18:52:00.993Z,16
2022-09-10T18:53:00.967Z,17
2022-09-10T18:54:00.968Z,18
2022-09-10T18:55:00.967Z,16
2022-09-10T18:56:01.033Z,17
2022-09-10T18:58:01.097Z,18
2022-09-10T19:00:01.068Z,18
2022-09-10T19:01:00.967Z,17
2022-09-10T19:02:01.058Z,18
2022-09-10T19:03:01.009Z,17
2022-09-10T19:06:01.036Z,16
2022-09-10T19:07:01.041Z,15
2022-09-10T19:09:01.025Z,16
2022-09-10T19:10:00.972Z,17
2022-09-10T19:11:00.971Z,18
2022-09-10T19:13:00.972Z,20
2022-09-10T19:14:00.999Z,19
2022-09-10T19:15:00.974Z,18
2022-09-10T19:16:01.018Z,17
2022-09-10T19:18:04.536Z,15
2022-09-10T19:21:01.040Z,18
2022-09-10T19:23:00.977Z,19
2022-09-10T19:24:01.005Z,17
2022-09-10T19:25:00.998Z,18
2022-09-10T19:26:00.975Z,17
2022-09-10T19:27:00.974Z,16
2022-09-10T19:28:00.974Z,15
2022-09-10T19:29:01.002Z,17
2022-09-10T19:30:00.983Z,16
2022-09-10T19:31:00.992Z,17
2022-09-10T19:32:00.975Z,18
2022-09-10T19:34:01.005Z,16
2022-09-10T19:35:00.976Z,19
2022-09-10T19:36:00.976Z,18
2022-09-10T19:37:00.976Z,19
2022-09-10T19:38:08.651Z,20
2022-09-10T19:39:01.011Z,21
2022-09-10T19:40:01.007Z,20
2022-09-10T19:41:01.002Z,19
2022-09-10T19:43:00.980Z,16
2022-09-10T19:45:01.006Z,16
2022-09-10T19:46:01.026Z,17
2022-09-10T19:47:00.981Z,16
2022-09-10T19:48:00.981Z,17
2022-09-10T19:49:00.983Z,16
2022-09-10T19:50:01.286Z,17
2022-09-10T19:51:00.986Z,19
2022-09-10T19:52:00.982Z,20
2022-09-10T19:55:00.983Z,18
2022-09-10T19:56:00.988Z,17
2022-09-10T19:57:01.010Z,16
2022-09-10T20:00:00.983Z,16
2022-09-10T20:02:01.289Z,17
2022-09-10T20:03:00.989Z,18
2022-09-10T20:04:00.988Z,17
2022-09-10T20:05:00.986Z,18
2022-09-10T20:06:00.985Z,17
2022-09-10T20:07:00.986Z,15
2022-09-10T20:09:00.984Z,16
2022-09-10T20:10:00.984Z,17
2022-09-10T20:11:01.021Z,16
2022-09-10T20:13:01.012Z,17
2022-09-10T20:14:00.989Z,16
2022-09-10T20:15:00.987Z,15
2022-09-10T20:16:01.020Z,16
2022-09-10T20:18:00.985Z,14
2022-09-10T20:19:00.987Z,15
2022-09-10T20:23:01.141Z,16
2022-09-10T20:26:00.987Z,14
2022-09-10T20:27:01.014Z,13
2022-09-10T20:28:00.986Z,14
2022-09-10T20:29:01.012Z,15
2022-09-10T20:30:00.990Z,14
2022-09-10T20:31:01.015Z,15
2022-09-10T20:32:01.024Z,17
2022-09-10T20:34:00.988Z,16
2022-09-10T20:35:01.035Z,17
2022-09-10T20:37:01.029Z,16
2022-09-10T20:38:00.998Z,17
2022-09-10T20:40:01.049Z,18
2022-09-10T20:41:00.987Z,20
2022-09-10T20:43:01.026Z,19
2022-09-10T20:44:00.991Z,17
2022-09-10T20:45:01.014Z,18
2022-09-10T20:46:01.010Z,17